createdAt,value
2023-02-03T00:01:34.091Z,9.00
2023-02-03T00:03:57.337Z,9.00
2023-02-03T00:06:20.762Z,9.00
2023-02-03T00:08:44.057Z,9.00
2023-02-03T00:11:09.145Z,8.90
2023-02-03T00:13:32.582Z,9.00
2023-02-03T00:15:56.024Z,9.00
2023-02-03T00:18:19.304Z,9.00
2023-02-03T00:20:42.601Z,8.80
2023-02-03T00:23:06.797Z,8.80
2023-02-03T00:25:30.206Z,8.90
2023-02-03T00:27:54.815Z,8.90
2023-02-03T00:30:18.784Z,9.00
2023-02-03T00:32:42.174Z,8.90
2023-02-03T00:35:06.064Z,9.00
2023-02-03T00:37:29.443Z,9.00
2023-02-03T00:39:52.983Z,9.00
2023-02-03T00:42:16.790Z,9.00
2023-02-03T00:44:41.953Z,9.00
2023-02-03T00:47:05.376Z,9.00
2023-02-03T00:49:28.630Z,9.00
2023-02-03T00:51:52.596Z,9.00
2023-02-03T00:54:17.753Z,9.00
2023-02-03T00:56:41.439Z,9.00
2023-02-03T00:59:04.952Z,9.00
2023-02-03T01:01:29.779Z,9.00
2023-02-03T01:03:55.580Z,9.00
2023-02-03T01:06:21.597Z,9.00
2023-02-03T01:08:45.676Z,9.00
2023-02-03T01:11:09.852Z,9.00
2023-02-03T01:13:33.127Z,9.00
2023-02-03T01:15:56.485Z,9.00
2023-02-03T01:18:21.140Z,9.10
2023-02-03T01:20:44.414Z,9.00
2023-02-03T01:23:07.688Z,9.00
2023-02-03T01:25:30.997Z,9.00
2023-02-03T01:27:54.294Z,9.00
2023-02-03T01:30:18.492Z,9.10
2023-02-03T01:32:41.722Z,9.00
2023-02-03T01:35:07.025Z,9.00
2023-02-03T01:37:30.384Z,9.00
2023-02-03T01:39:53.673Z,9.00
2023-02-03T01:42:17.925Z,9.10
2023-02-03T01:44:47.673Z,9.10
2023-02-03T01:47:18.881Z,9.00
2023-02-03T01:49:46.396Z,9.10
2023-02-03T01:52:11.307Z,9.10
2023-02-03T01:54:40.327Z,9.10
2023-02-03T01:57:12.689Z,9.10
2023-02-03T01:59:37.297Z,9.10
2023-02-03T02:02:01.578Z,9.20
2023-02-03T02:04:33.767Z,9.20
2023-02-03T02:06:58.796Z,9.20
2023-02-03T02:09:24.099Z,9.20
2023-02-03T02:11:47.430Z,9.10
2023-02-03T02:14:10.843Z,9.10
2023-02-03T02:16:47.709Z,9.20
2023-02-03T02:19:45.967Z,9.10
2023-02-03T02:22:15.867Z,9.10
2023-02-03T02:25:11.916Z,9.10
2023-02-03T02:28:19.593Z,9.10
2023-02-03T02:31:08.242Z,9.10
2023-02-03T02:33:42.638Z,9.20
2023-02-03T02:36:19.497Z,9.20
2023-02-03T02:38:52.181Z,9.10
2023-02-03T02:41:21.714Z,9.20
2023-02-03T02:43:52.819Z,9.20
2023-02-03T02:46:21.369Z,9.20
2023-02-03T02:48:53.132Z,9.20
2023-02-03T02:51:17.960Z,9.20
2023-02-03T02:53:47.008Z,9.20
2023-02-03T02:56:15.600Z,9.20
2023-02-03T02:58:42.452Z,9.10
2023-02-03T03:01:08.370Z,9.20
2023-02-03T03:03:34.572Z,9.20
2023-02-03T03:06:03.961Z,9.10
2023-02-03T03:08:37.835Z,9.20
2023-02-03T03:11:03.510Z,9.20
2023-02-03T03:13:33.563Z,9.10
2023-02-03T03:16:01.093Z,9.20
2023-02-03T03:18:30.411Z,9.10
2023-02-03T03:20:57.353Z,9.20
2023-02-03T03:23:27.102Z,9.30
2023-02-03T03:25:56.445Z,9.30
2023-02-03T03:28:27.113Z,9.30
2023-02-03T03:30:50.669Z,9.20
2023-02-03T03:33:14.237Z,9.20
2023-02-03T03:35:49.423Z,9.30
2023-02-03T03:38:19.353Z,9.20
2023-02-03T03:40:50.841Z,9.20
2023-02-03T03:43:20.405Z,9.20
2023-02-03T03:45:50.380Z,9.10
2023-02-03T03:48:18.892Z,9.20
2023-02-03T03:50:46.419Z,9.20
2023-02-03T03:53:11.784Z,9.20
2023-02-03T03:55:37.641Z,9.20
2023-02-03T03:58:07.027Z,9.30
2023-02-03T04:00:33.910Z,9.30
2023-02-03T04:02:59.688Z,9.30
2023-02-03T04:05:23.440Z,9.30
2023-02-03T04:07:49.331Z,9.10
2023-02-03T04:10:24.634Z,9.20
2023-02-03T04:12:47.959Z,9.30
2023-02-03T04:15:12.682Z,9.30
2023-02-03T04:17:36.502Z,9.30
2023-02-03T04:19:59.764Z,9.30
2023-02-03T04:22:23.007Z,9.30
2023-02-03T04:24:46.306Z,9.30
2023-02-03T04:27:09.604Z,9.40
2023-02-03T04:29:33.018Z,9.30
2023-02-03T04:31:57.915Z,9.30
2023-02-03T04:34:21.251Z,9.30
2023-02-03T04:36:44.525Z,9.30
2023-02-03T04:39:08.171Z,9.30
2023-02-03T04:41:31.421Z,9.30
2023-02-03T04:43:54.766Z,9.30
2023-02-03T04:46:18.960Z,9.40
2023-02-03T04:48:43.641Z,9.30
2023-02-03T04:51:09.561Z,9.30
2023-02-03T04:53:33.283Z,9.20
2023-02-03T04:55:56.569Z,9.20
2023-02-03T04:58:19.950Z,9.20
2023-02-03T05:00:43.316Z,9.30
2023-02-03T05:03:06.732Z,9.30
2023-02-03T05:05:31.591Z,9.20
2023-02-03T05:07:54.849Z,9.30
2023-02-03T05:10:18.591Z,9.30
2023-02-03T05:12:41.908Z,9.30
2023-02-03T05:15:05.927Z,9.20
2023-02-03T05:17:29.282Z,9.20
2023-02-03T05:19:52.571Z,9.30
2023-02-03T05:22:17.204Z,9.30
2023-02-03T05:24:40.498Z,9.20
2023-02-03T05:27:03.822Z,9.30
2023-02-03T05:29:27.527Z,9.30
2023-02-03T05:31:50.938Z,9.30
2023-02-03T05:34:14.344Z,9.20
2023-02-03T05:36:37.574Z,9.30
2023-02-03T05:39:02.135Z,9.30
2023-02-03T05:41:42.699Z,9.30
2023-02-03T05:44:06.234Z,9.30
2023-02-03T05:46:29.955Z,9.40
2023-02-03T05:48:53.267Z,9.40
2023-02-03T05:51:16.706Z,9.40
2023-02-03T05:53:40.205Z,9.40
2023-02-03T05:56:05.504Z,9.40
2023-02-03T05:58:28.740Z,9.50
2023-02-03T06:00:53.097Z,9.40
2023-02-03T06:03:16.675Z,9.40
2023-02-03T06:05:41.417Z,9.30
2023-02-03T06:08:05.223Z,9.30
2023-02-03T06:10:29.561Z,9.40
2023-02-03T06:12:54.867Z,9.40
2023-02-03T06:15:18.570Z,9.30
2023-02-03T06:17:45.498Z,9.30
2023-02-03T06:20:12.231Z,9.30
2023-02-03T06:22:36.272Z,9.40
2023-02-03T06:24:59.632Z,9.50
2023-02-03T06:27:22.883Z,9.40
2023-02-03T06:29:47.545Z,9.40
2023-02-03T06:32:10.949Z,9.40
2023-02-03T06:34:34.612Z,9.50
2023-02-03T06:36:57.987Z,9.50
2023-02-03T06:39:21.717Z,9.50
2023-02-03T06:41:45.035Z,9.40
2023-02-03T06:44:08.980Z,9.50
2023-02-03T06:46:34.034Z,9.50
2023-02-03T06:48:57.854Z,9.50
2023-02-03T06:51:21.237Z,9.50
2023-02-03T06:53:44.595Z,9.50
2023-02-03T06:56:08.122Z,9.50
2023-02-03T06:58:31.476Z,9.50
2023-02-03T07:00:57.127Z,9.40
2023-02-03T07:03:21.738Z,9.50
2023-02-03T07:05:45.174Z,9.40
2023-02-03T07:08:08.474Z,9.40
2023-02-03T07:10:32.033Z,9.40
2023-02-03T07:12:55.696Z,9.40
2023-02-03T07:15:19.886Z,9.40
2023-02-03T07:17:43.086Z,9.40
2023-02-03T07:20:08.971Z,9.40
2023-02-03T07:22:32.602Z,9.40
2023-02-03T07:24:55.951Z,9.40
2023-02-03T07:27:20.303Z,9.40
2023-02-03T07:29:43.721Z,9.40
2023-02-03T07:32:07.138Z,9.30
2023-02-03T07:34:30.864Z,9.40
2023-02-03T07:36:55.923Z,9.40
2023-02-03T07:39:19.404Z,9.40
2023-02-03T07:41:42.720Z,9.40
2023-02-03T07:44:06.831Z,9.40
2023-02-03T07:46:30.302Z,9.40
2023-02-03T07:48:53.886Z,9.50
2023-02-03T07:51:17.340Z,9.50
2023-02-03T07:53:42.154Z,9.50
2023-02-03T07:56:06.906Z,9.50
2023-02-03T07:58:30.789Z,9.50
2023-02-03T08:00:54.153Z,9.50
2023-02-03T08:03:17.528Z,9.50
2023-02-03T08:05:40.902Z,9.50
2023-02-03T08:08:04.332Z,9.50
2023-02-03T08:10:29.933Z,9.50
2023-02-03T08:12:54.897Z,9.50
2023-02-03T08:15:18.341Z,9.50
2023-02-03T08:17:42.134Z,9.50
2023-02-03T08:20:07.178Z,9.50
2023-02-03T08:22:30.411Z,9.50
2023-02-03T08:24:53.672Z,9.50
2023-02-03T08:27:21.825Z,9.50
2023-02-03T08:29:46.032Z,9.50
2023-02-03T08:32:11.318Z,9.50
2023-02-03T08:34:34.652Z,9.50
2023-02-03T08:36:57.980Z,9.50
2023-02-03T08:39:21.341Z,9.40
2023-02-03T08:41:44.657Z,9.40
2023-02-03T08:44:09.306Z,9.50
2023-02-03T08:46:33.194Z,9.40
2023-02-03T08:48:57.553Z,9.30
2023-02-03T08:51:20.815Z,9.30
2023-02-03T08:53:44.629Z,9.30
2023-02-03T08:56:08.636Z,9.30
2023-02-03T08:58:31.931Z,9.30
2023-02-03T09:00:56.576Z,9.20
2023-02-03T09:03:20.012Z,9.30
2023-02-03T09:05:43.371Z,9.20
2023-02-03T09:08:07.147Z,9.20
2023-02-03T09:10:30.842Z,9.10
2023-02-03T09:12:54.339Z,9.10
2023-02-03T09:15:17.946Z,9.10
2023-02-03T09:17:43.106Z,9.00
2023-02-03T09:20:08.006Z,9.00
2023-02-03T09:22:31.506Z,9.00
2023-02-03T09:24:54.992Z,9.00
2023-02-03T09:27:18.307Z,9.00
2023-02-03T09:29:41.699Z,9.10
2023-02-03T09:32:08.827Z,9.00
2023-02-03T09:34:33.701Z,9.00
2023-02-03T09:36:56.987Z,9.00
2023-02-03T09:39:20.482Z,9.00
2023-02-03T09:42:16.788Z,9.10
2023-02-03T09:44:49.122Z,9.00
2023-02-03T09:47:17.097Z,9.00
2023-02-03T09:49:47.180Z,9.00
2023-02-03T09:52:15.874Z,9.00
2023-02-03T09:54:44.689Z,9.00
2023-02-03T09:57:17.654Z,9.00
2023-02-03T09:59:41.298Z,9.00
2023-02-03T10:02:22.921Z,9.00
2023-02-03T10:04:59.308Z,9.00
2023-02-03T10:07:35.087Z,9.00
2023-02-03T10:10:05.901Z,8.90
2023-02-03T10:13:04.598Z,9.00
2023-02-03T10:16:04.330Z,9.00
2023-02-03T10:18:33.664Z,9.00
2023-02-03T10:21:03.351Z,9.00
2023-02-03T10:23:34.576Z,9.00
2023-02-03T10:26:00.795Z,9.00
2023-02-03T10:28:28.675Z,9.10
2023-02-03T10:30:57.578Z,9.10
2023-02-03T10:33:22.125Z,9.10
2023-02-03T10:35:52.571Z,9.10
2023-02-03T10:38:28.440Z,9.20
2023-02-03T10:40:51.896Z,9.20
2023-02-03T10:43:32.468Z,9.20
2023-02-03T10:45:55.929Z,9.30
2023-02-03T10:48:19.914Z,9.30
2023-02-03T10:50:47.952Z,9.40
2023-02-03T10:53:34.367Z,9.40
2023-02-03T10:56:08.639Z,9.40
2023-02-03T10:58:34.722Z,9.50
2023-02-03T11:01:06.081Z,9.50
2023-02-03T11:03:31.592Z,9.50
2023-02-03T11:06:11.597Z,9.50
2023-02-03T11:08:37.934Z,9.50
2023-02-03T11:11:05.008Z,9.60
2023-02-03T11:13:28.471Z,9.70
2023-02-03T11:15:58.129Z,9.70
2023-02-03T11:18:43.464Z,9.70
2023-02-03T11:21:16.779Z,9.70
2023-02-03T11:23:55.656Z,9.80
2023-02-03T11:26:23.251Z,9.90
2023-02-03T11:28:50.064Z,9.90
2023-02-03T11:31:22.031Z,9.90
2023-02-03T11:33:49.841Z,10.00
2023-02-03T11:36:14.075Z,10.00
2023-02-03T11:38:37.559Z,10.00
2023-02-03T11:41:03.501Z,10.00
2023-02-03T11:43:26.849Z,10.00
2023-02-03T11:45:54.603Z,10.10
2023-02-03T11:48:31.148Z,10.00
2023-02-03T11:51:05.978Z,10.10
2023-02-03T11:53:56.179Z,10.00
2023-02-03T11:56:35.839Z,10.10
2023-02-03T11:59:19.414Z,10.10
2023-02-03T12:02:01.949Z,10.10
2023-02-03T12:05:07.887Z,10.20
2023-02-03T12:07:54.663Z,10.20
2023-02-03T12:10:39.023Z,10.20
2023-02-03T12:13:18.072Z,10.20
2023-02-03T12:16:00.711Z,10.20
2023-02-03T12:18:42.392Z,10.20
2023-02-03T12:21:30.316Z,10.20
2023-02-03T12:24:02.874Z,10.30
2023-02-03T12:26:31.204Z,10.30
2023-02-03T12:29:04.197Z,10.20
2023-02-03T12:31:36.650Z,10.30
2023-02-03T12:34:15.032Z,10.30
2023-02-03T12:36:42.474Z,10.30
2023-02-03T12:39:15.120Z,10.40
2023-02-03T12:41:43.188Z,10.40
2023-02-03T12:44:17.816Z,10.30
2023-02-03T12:46:46.212Z,10.40
2023-02-03T12:49:21.043Z,10.40
2023-02-03T12:51:51.472Z,10.40
2023-02-03T12:54:32.032Z,10.40
2023-02-03T12:57:02.178Z,10.50
2023-02-03T12:59:30.857Z,10.40
2023-02-03T13:01:59.614Z,10.50
2023-02-03T13:04:30.685Z,10.50
2023-02-03T13:07:00.009Z,10.50
2023-02-03T13:09:33.036Z,10.50
2023-02-03T13:12:05.529Z,10.60
2023-02-03T13:14:37.241Z,10.70
2023-02-03T13:17:08.303Z,10.80
2023-02-03T13:19:42.454Z,10.70
2023-02-03T13:22:12.445Z,10.80
2023-02-03T13:24:35.887Z,10.80
2023-02-03T13:27:30.050Z,10.80
2023-02-03T13:30:17.969Z,10.80
2023-02-03T13:33:02.812Z,10.80
2023-02-03T13:35:52.146Z,10.80
2023-02-03T13:38:57.281Z,10.70
2023-02-03T13:41:28.560Z,10.70
2023-02-03T13:43:54.943Z,10.70
2023-02-03T13:46:26.554Z,10.70
2023-02-03T13:48:50.665Z,10.70
2023-02-03T13:51:17.968Z,10.70
2023-02-03T13:53:44.892Z,10.70
2023-02-03T13:56:10.376Z,10.70
2023-02-03T13:58:36.733Z,10.70
2023-02-03T14:01:38.433Z,10.60
2023-02-03T14:04:03.085Z,10.60
2023-02-03T14:07:04.173Z,10.60
2023-02-03T14:10:17.897Z,10.60
2023-02-03T14:12:59.169Z,10.50
2023-02-03T14:15:34.199Z,10.60
2023-02-03T14:18:21.830Z,10.60
2023-02-03T14:21:15.031Z,10.60
2023-02-03T14:23:51.742Z,10.60
2023-02-03T14:26:25.987Z,10.50
2023-02-03T14:28:52.757Z,10.50
2023-02-03T14:31:21.136Z,10.40
2023-02-03T14:33:59.452Z,10.20
2023-02-03T14:36:35.033Z,10.20
2023-02-03T14:39:02.322Z,10.20
2023-02-03T14:41:36.029Z,10.20
2023-02-03T14:44:10.434Z,10.30
2023-02-03T14:47:08.805Z,10.30
2023-02-03T14:49:53.624Z,10.20
2023-02-03T14:52:53.579Z,10.10
2023-02-03T14:55:36.686Z,10.00
2023-02-03T14:58:03.635Z,9.80
2023-02-03T15:00:34.225Z,9.70
2023-02-03T15:03:30.230Z,9.50
2023-02-03T15:05:59.438Z,9.50
2023-02-03T15:08:36.523Z,9.40
2023-02-03T15:11:00.175Z,9.40
2023-02-03T15:13:28.265Z,9.30
2023-02-03T15:15:54.712Z,9.20
2023-02-03T15:18:24.373Z,9.20
2023-02-03T15:20:49.551Z,9.20
2023-02-03T15:23:23.373Z,9.20
2023-02-03T15:25:46.827Z,9.10
2023-02-03T15:28:16.957Z,9.10
2023-02-03T15:30:41.647Z,9.10
2023-02-03T15:33:09.061Z,9.10
2023-02-03T15:35:35.475Z,9.10
2023-02-03T15:38:04.256Z,9.10
2023-02-03T15:40:39.343Z,9.10
2023-02-03T15:43:09.242Z,9.00
2023-02-03T15:45:35.839Z,9.10
2023-02-03T15:48:03.394Z,9.00
2023-02-03T15:50:32.250Z,9.10
2023-02-03T15:53:01.636Z,9.00
2023-02-03T15:55:34.035Z,9.10
2023-02-03T15:57:57.623Z,9.10
2023-02-03T16:00:33.267Z,9.10
2023-02-03T16:02:59.667Z,9.10
2023-02-03T16:05:27.416Z,9.10
2023-02-03T16:07:51.225Z,9.20
2023-02-03T16:10:32.049Z,9.20
2023-02-03T16:12:55.899Z,9.20
2023-02-03T16:15:24.829Z,9.20
2023-02-03T16:17:48.125Z,9.20
2023-02-03T16:20:29.215Z,9.10
2023-02-03T16:23:19.664Z,9.20
2023-02-03T16:25:44.529Z,9.30
2023-02-03T16:28:35.317Z,9.30
2023-02-03T16:31:20.178Z,9.30
2023-02-03T16:34:05.068Z,9.20
2023-02-03T16:36:45.794Z,9.20
2023-02-03T16:39:31.370Z,9.20
2023-02-03T16:42:14.068Z,9.10
2023-02-03T16:44:54.790Z,9.10
2023-02-03T16:47:43.917Z,9.20
2023-02-03T16:50:37.464Z,9.20
2023-02-03T16:53:01.792Z,9.10
2023-02-03T16:55:25.127Z,9.20
2023-02-03T16:57:51.349Z,9.20
2023-02-03T17:00:17.570Z,9.20
2023-02-03T17:02:40.923Z,9.20
2023-02-03T17:05:04.232Z,9.20
2023-02-03T17:07:27.587Z,9.10
2023-02-03T17:09:51.447Z,9.10
2023-02-03T17:12:15.615Z,9.20
2023-02-03T17:14:40.336Z,9.20
2023-02-03T17:17:03.653Z,9.10
2023-02-03T17:19:26.952Z,9.20
2023-02-03T17:21:51.427Z,9.20
2023-02-03T17:24:14.983Z,9.10
2023-02-03T17:26:38.400Z,9.10
2023-02-03T17:29:03.500Z,9.10
2023-02-03T17:31:28.348Z,9.10
2023-02-03T17:33:53.102Z,9.10
2023-02-03T17:36:19.562Z,9.10
2023-02-03T17:54:55.458Z,9.00
2023-02-03T17:57:18.732Z,9.00
2023-02-03T17:59:42.050Z,9.00
2023-02-03T18:02:07.177Z,9.00
2023-02-03T18:04:30.899Z,9.00
2023-02-03T18:06:54.533Z,9.00
2023-02-03T18:09:18.239Z,9.00
2023-02-03T18:11:41.788Z,9.00
2023-02-03T18:14:06.589Z,9.00
2023-02-03T18:16:33.493Z,9.00
2023-02-03T18:18:58.337Z,8.90
2023-02-03T18:21:26.392Z,9.00
2023-02-03T18:23:51.265Z,8.90
2023-02-03T18:26:15.209Z,8.90
2023-02-03T18:28:39.501Z,8.90
2023-02-03T18:31:07.767Z,8.90
2023-02-03T18:33:31.315Z,8.90
2023-02-03T18:35:57.685Z,8.90
2023-02-03T18:38:21.083Z,8.90
2023-02-03T18:40:44.546Z,8.90
2023-02-03T18:43:08.143Z,8.80
2023-02-03T18:45:34.378Z,8.80
2023-02-03T18:47:57.796Z,8.80
2023-02-03T18:50:21.394Z,8.90
2023-02-03T18:52:46.224Z,8.80
2023-02-03T18:55:10.220Z,8.90
2023-02-03T18:57:33.513Z,8.80
2023-02-03T18:59:57.030Z,8.80
2023-02-03T19:02:21.617Z,8.80
2023-02-03T19:04:44.910Z,8.70
2023-02-03T19:07:08.271Z,8.70
2023-02-03T19:09:34.040Z,8.60
2023-02-03T19:11:58.762Z,8.70
2023-02-03T19:14:23.482Z,8.60
2023-02-03T19:16:50.304Z,8.80
2023-02-03T19:19:15.029Z,8.70
2023-02-03T19:21:38.289Z,8.70
2023-02-03T19:24:01.836Z,8.60
2023-02-03T19:26:27.770Z,8.60
2023-02-03T19:28:52.531Z,8.60
2023-02-03T19:31:16.742Z,8.70
2023-02-03T19:33:40.457Z,8.70
2023-02-03T19:36:04.033Z,8.60
2023-02-03T19:38:27.516Z,8.60
2023-02-03T19:40:51.389Z,8.60
2023-02-03T19:43:16.248Z,8.60
2023-02-03T19:45:39.556Z,8.70
2023-02-03T19:48:02.820Z,8.60
2023-02-03T19:50:26.181Z,8.70
2023-02-03T19:52:49.516Z,8.70
2023-02-03T19:55:16.071Z,8.70
2023-02-03T19:57:40.204Z,8.70
2023-02-03T20:00:05.560Z,8.70
2023-02-03T20:02:36.815Z,8.80
2023-02-03T20:05:00.208Z,8.80
2023-02-03T20:07:24.994Z,8.70
2023-02-03T20:09:48.747Z,8.80
2023-02-03T20:12:13.062Z,8.70
2023-02-03T20:14:36.495Z,8.80
2023-02-03T20:17:03.286Z,8.80
2023-02-03T20:19:26.741Z,8.80
2023-02-03T20:21:50.047Z,8.80
2023-02-03T20:24:17.819Z,8.80
2023-02-03T20:26:41.558Z,8.80
2023-02-03T20:29:04.987Z,8.80
2023-02-03T20:31:28.461Z,8.80
2023-02-03T20:33:53.332Z,8.80
2023-02-03T20:36:16.628Z,8.80
2023-02-03T20:38:40.036Z,8.70
2023-02-03T20:41:03.377Z,8.70
2023-02-03T20:43:28.955Z,8.70
2023-02-03T20:45:53.087Z,8.70
2023-02-03T20:48:18.094Z,8.70
2023-02-03T20:50:46.716Z,8.70
2023-02-03T20:53:15.074Z,8.60
2023-02-03T20:55:38.620Z,8.70
2023-02-03T20:58:02.864Z,8.70
2023-02-03T21:00:28.872Z,8.70
2023-02-03T21:03:10.604Z,8.70
2023-02-03T21:05:38.230Z,8.60
2023-02-03T21:08:03.356Z,8.70
2023-02-03T21:10:27.093Z,8.60
2023-02-03T21:12:50.743Z,8.60
2023-02-03T21:15:20.916Z,8.70
2023-02-03T21:17:44.267Z,8.60
2023-02-03T21:20:25.693Z,8.60
2023-02-03T21:22:49.086Z,8.60
2023-02-03T21:25:28.297Z,8.60
2023-02-03T21:27:53.023Z,8.60
2023-02-03T21:30:30.820Z,8.60
2023-02-03T21:32:54.298Z,8.60
2023-02-03T21:35:24.947Z,8.50
2023-02-03T21:37:48.239Z,8.50
2023-02-03T21:40:24.022Z,8.60
2023-02-03T21:42:48.073Z,8.60
2023-02-03T21:45:28.416Z,8.50
2023-02-03T21:47:53.722Z,8.50
2023-02-03T21:50:30.397Z,8.50
2023-02-03T21:52:54.080Z,8.50
2023-02-03T21:55:19.156Z,8.50
2023-02-03T21:57:42.516Z,8.50
2023-02-03T22:00:42.988Z,8.50
2023-02-03T22:03:08.417Z,8.50
2023-02-03T22:05:31.733Z,8.50
2023-02-03T22:07:55.533Z,8.50
2023-02-03T22:10:20.340Z,8.40
2023-02-03T22:12:43.675Z,8.50
2023-02-03T22:15:08.040Z,8.50
2023-02-03T22:17:31.303Z,8.40
2023-02-03T22:19:54.534Z,8.40
2023-02-03T22:22:17.816Z,8.40
2023-02-03T22:24:41.051Z,8.40
2023-02-03T22:27:06.382Z,8.40
2023-02-03T22:29:29.641Z,8.40
2023-02-03T22:31:53.042Z,8.50
2023-02-03T22:34:16.510Z,8.50
2023-02-03T22:36:39.807Z,8.50
2023-02-03T22:39:03.290Z,8.40
2023-02-03T22:41:26.597Z,8.50
2023-02-03T22:43:51.392Z,8.50
2023-02-03T22:46:14.720Z,8.40
2023-02-03T22:48:38.120Z,8.40
2023-02-03T22:51:01.451Z,8.40
2023-02-03T22:53:24.786Z,8.50
2023-02-03T22:55:48.107Z,8.50
2023-02-03T22:58:11.641Z,8.50
2023-02-03T23:00:36.652Z,8.40
2023-02-03T23:03:00.336Z,8.40
2023-02-03T23:05:24.254Z,8.40
2023-02-03T23:07:48.535Z,8.50
2023-02-03T23:10:16.058Z,8.50
2023-02-03T23:12:40.577Z,8.50
2023-02-03T23:15:04.133Z,8.50
2023-02-03T23:17:28.896Z,8.30
2023-02-03T23:19:52.210Z,8.40
2023-02-03T23:22:15.973Z,8.40
2023-02-03T23:24:39.278Z,8.40
2023-02-03T23:27:02.584Z,8.30
2023-02-03T23:29:25.839Z,8.40
2023-02-03T23:31:49.137Z,8.40
2023-02-03T23:34:31.461Z,8.30
2023-02-03T23:36:54.709Z,8.30
2023-02-03T23:39:17.890Z,8.30
2023-02-03T23:41:41.159Z,8.30
2023-02-03T23:44:04.427Z,8.30
2023-02-03T23:46:28.466Z,8.30
2023-02-03T23:48:51.697Z,8.20
2023-02-03T23:51:16.381Z,8.20
2023-02-03T23:53:39.655Z,8.20
2023-02-03T23:56:02.906Z,8.20
2023-02-03T23:58:26.646Z,8.20
